sensor_id;sensor_type;location;lat;lon;timestamp;pressure;altitude;pressure_sealevel;temperature;humidity
5679;BME280;2862;52.560;13.566;2022-10-03T00:09:03;100868.97;;;11.36;93.06
5679;BME280;2862;52.560;13.566;2022-10-03T00:19:16;100880.25;;;11.39;92.89
5679;BME280;2862;52.560;13.566;2022-10-03T00:29:38;100893.97;;;11.46;93.21
5679;BME280;2862;52.560;13.566;2022-10-03T00:39:55;100885.81;;;11.68;92.22
5679;BME280;2862;52.560;13.566;2022-10-03T01:00:29;100897.25;;;11.50;93.22
5679;BME280;2862;52.560;13.566;2022-10-03T01:10:42;100899.59;;;11.43;93.77
5679;BME280;2862;52.560;13.566;2022-10-03T01:20:57;100910.97;;;11.56;93.42
5679;BME280;2862;52.560;13.566;2022-10-03T01:31:07;100915.28;;;11.68;92.74
5679;BME280;2862;52.560;13.566;2022-10-03T01:41:20;100926.31;;;11.75;92.75
5679;BME280;2862;52.560;13.566;2022-10-03T01:51:30;100925.44;;;11.86;91.66
5679;BME280;2862;52.560;13.566;2022-10-03T02:01:45;100925.19;;;11.89;90.86
5679;BME280;2862;52.560;13.566;2022-10-03T02:12:06;100937.13;;;11.85;91.87
5679;BME280;2862;52.560;13.566;2022-10-03T02:22:14;100932.84;;;11.93;90.75
5679;BME280;2862;52.560;13.566;2022-10-03T02:43:23;100946.69;;;11.99;91.04
5679;BME280;2862;52.560;13.566;2022-10-03T03:15:44;100967.00;;;12.01;89.31
5679;BME280;2862;52.560;13.566;2022-10-03T03:26:12;100975.75;;;12.03;88.88
5679;BME280;2862;52.560;13.566;2022-10-03T03:36:25;100972.38;;;12.01;88.88
5679;BME280;2862;52.560;13.566;2022-10-03T03:46:39;100975.28;;;11.98;89.12
5679;BME280;2862;52.560;13.566;2022-10-03T03:56:54;100993.94;;;12.00;89.13
5679;BME280;2862;52.560;13.566;2022-10-03T04:07:07;100997.66;;;12.08;88.86
5679;BME280;2862;52.560;13.566;2022-10-03T04:17:27;101009.13;;;12.10;88.96
5679;BME280;2862;52.560;13.566;2022-10-03T04:38:40;101012.13;;;12.17;88.04
5679;BME280;2862;52.560;13.566;2022-10-03T04:48:51;101019.38;;;12.05;88.73
5679;BME280;2862;52.560;13.566;2022-10-03T04:59:07;101022.34;;;11.91;89.08
5679;BME280;2862;52.560;13.566;2022-10-03T05:09:22;101034.19;;;11.88;89.38
5679;BME280;2862;52.560;13.566;2022-10-03T05:19:43;101031.47;;;12.00;88.54
5679;BME280;2862;52.560;13.566;2022-10-03T05:29:56;101038.31;;;11.92;88.73
5679;BME280;2862;52.560;13.566;2022-10-03T05:40:13;101053.63;;;12.02;88.80
5679;BME280;2862;52.560;13.566;2022-10-03T05:50:32;101056.91;;;12.05;88.53
5679;BME280;2862;52.560;13.566;2022-10-03T06:00:50;101072.94;;;12.16;87.21
5679;BME280;2862;52.560;13.566;2022-10-03T06:11:05;101079.22;;;12.47;84.90
5679;BME280;2862;52.560;13.566;2022-10-03T06:21:28;101098.06;;;12.57;84.68
5679;BME280;2862;52.560;13.566;2022-10-03T06:32:02;101120.69;;;12.64;84.87
5679;BME280;2862;52.560;13.566;2022-10-03T07:03:59;101125.47;;;14.80;75.59
5679;BME280;2862;52.560;13.566;2022-10-03T07:14:31;101148.28;;;15.23;70.47
5679;BME280;2862;52.560;13.566;2022-10-03T07:25:19;101152.75;;;13.98;76.72
5679;BME280;2862;52.560;13.566;2022-10-03T07:35:39;101153.44;;;13.71;77.63
5679;BME280;2862;52.560;13.566;2022-10-03T07:46:40;101172.00;;;13.93;77.38
5679;BME280;2862;52.560;13.566;2022-10-03T08:07:56;101199.34;;;14.08;76.61
5679;BME280;2862;52.560;13.566;2022-10-03T08:18:35;101208.25;;;14.08;74.49
5679;BME280;2862;52.560;13.566;2022-10-03T08:29:02;101210.69;;;15.92;68.56
5679;BME280;2862;52.560;13.566;2022-10-03T08:39:12;101223.31;;;16.19;66.94
5679;BME280;2862;52.560;13.566;2022-10-03T08:49:42;101228.84;;;15.06;70.64
5679;BME280;2862;52.560;13.566;2022-10-03T09:00:06;101231.78;;;15.32;70.88
5679;BME280;2862;52.560;13.566;2022-10-03T09:10:33;101225.13;;;16.64;65.03
5679;BME280;2862;52.560;13.566;2022-10-03T09:21:13;101232.91;;;16.85;63.00
5679;BME280;2862;52.560;13.566;2022-10-03T09:31:48;101239.09;;;16.78;63.58
5679;BME280;2862;52.560;13.566;2022-10-03T09:42:12;101238.63;;;17.26;61.56
5679;BME280;2862;52.560;13.566;2022-10-03T09:52:41;101224.72;;;17.47;60.18
5679;BME280;2862;52.560;13.566;2022-10-03T10:03:06;101245.81;;;16.73;61.99
5679;BME280;2862;52.560;13.566;2022-10-03T10:24:40;101230.34;;;17.53;60.26
5679;BME280;2862;52.560;13.566;2022-10-03T10:45:42;101234.03;;;18.21;58.11
5679;BME280;2862;52.560;13.566;2022-10-03T10:56:11;101220.22;;;18.48;57.70
5679;BME280;2862;52.560;13.566;2022-10-03T11:17:35;101216.19;;;18.52;56.18
5679;BME280;2862;52.560;13.566;2022-10-03T11:38:17;101231.72;;;17.58;61.37
5679;BME280;2862;52.560;13.566;2022-10-03T11:48:36;101230.59;;;17.68;60.41
5679;BME280;2862;52.560;13.566;2022-10-03T11:58:54;101235.78;;;17.28;62.02
5679;BME280;2862;52.560;13.566;2022-10-03T12:09:19;101221.56;;;17.60;63.90
5679;BME280;2862;52.560;13.566;2022-10-03T12:19:30;101213.19;;;17.71;63.00
5679;BME280;2862;52.560;13.566;2022-10-03T12:29:42;101208.88;;;17.78;62.17
5679;BME280;2862;52.560;13.566;2022-10-03T12:39:51;101211.44;;;17.88;60.63
5679;BME280;2862;52.560;13.566;2022-10-03T12:50:13;101216.63;;;17.47;62.22
5679;BME280;2862;52.560;13.566;2022-10-03T13:00:23;101214.97;;;17.88;61.29
5679;BME280;2862;52.560;13.566;2022-10-03T13:10:35;101214.81;;;17.56;62.33
5679;BME280;2862;52.560;13.566;2022-10-03T13:20:44;101215.13;;;17.52;61.30
5679;BME280;2862;52.560;13.566;2022-10-03T13:30:52;101208.97;;;17.42;61.60
5679;BME280;2862;52.560;13.566;2022-10-03T13:41:04;101214.03;;;17.11;63.06
5679;BME280;2862;52.560;13.566;2022-10-03T13:51:20;101212.78;;;16.97;62.37
5679;BME280;2862;52.560;13.566;2022-10-03T14:01:36;101213.91;;;16.95;61.99
5679;BME280;2862;52.560;13.566;2022-10-03T14:11:47;101225.50;;;16.87;61.94
5679;BME280;2862;52.560;13.566;2022-10-03T14:22:05;101222.03;;;16.77;61.25
5679;BME280;2862;52.560;13.566;2022-10-03T14:32:19;101222.31;;;17.10;60.07
5679;BME280;2862;52.560;13.566;2022-10-03T14:42:56;101224.25;;;16.99;61.14
5679;BME280;2862;52.560;13.566;2022-10-03T14:53:05;101217.94;;;16.73;63.04
5679;BME280;2862;52.560;13.566;2022-10-03T15:03:21;101212.38;;;16.57;63.63
5679;BME280;2862;52.560;13.566;2022-10-03T15:13:27;101204.75;;;16.52;64.42
5679;BME280;2862;52.560;13.566;2022-10-03T15:23:37;101212.75;;;16.26;64.46
5679;BME280;2862;52.560;13.566;2022-10-03T15:33:46;101218.47;;;16.23;65.34
5679;BME280;2862;52.560;13.566;2022-10-03T15:43:57;101216.88;;;16.03;65.44
5679;BME280;2862;52.560;13.566;2022-10-03T15:54:05;101229.16;;;15.87;66.54
5679;BME280;2862;52.560;13.566;2022-10-03T16:04:16;101220.31;;;15.58;70.67
5679;BME280;2862;52.560;13.566;2022-10-03T16:14:26;101229.59;;;15.46;72.04
5679;BME280;2862;52.560;13.566;2022-10-03T16:24:35;101222.25;;;15.38;73.67
5679;BME280;2862;52.560;13.566;2022-10-03T16:34:44;101217.63;;;15.21;75.05
5679;BME280;2862;52.560;13.566;2022-10-03T16:44:50;101227.25;;;15.13;75.61
5679;BME280;2862;52.560;13.566;2022-10-03T16:55:06;101229.84;;;15.05;74.42
5679;BME280;2862;52.560;13.566;2022-10-03T17:05:16;101218.22;;;15.05;74.33
5679;BME280;2862;52.560;13.566;2022-10-03T17:15:24;101213.84;;;14.94;74.93
5679;BME280;2862;52.560;13.566;2022-10-03T17:25:36;101222.06;;;14.73;75.00
5679;BME280;2862;52.560;13.566;2022-10-03T17:35:49;101224.34;;;14.49;77.02
5679;BME280;2862;52.560;13.566;2022-10-03T17:46:03;101221.19;;;14.34;77.00
5679;BME280;2862;52.560;13.566;2022-10-03T17:56:11;101220.75;;;14.19;76.75
5679;BME280;2862;52.560;13.566;2022-10-03T18:06:35;101233.47;;;14.27;76.58
5679;BME280;2862;52.560;13.566;2022-10-03T18:16:45;101224.84;;;14.33;76.32
5679;BME280;2862;52.560;13.566;2022-10-03T18:26:57;101232.09;;;14.42;76.49
5679;BME280;2862;52.560;13.566;2022-10-03T18:37:54;101216.22;;;14.20;77.38
5679;BME280;2862;52.560;13.566;2022-10-03T18:48:08;101225.25;;;14.09;78.06
5679;BME280;2862;52.560;13.566;2022-10-03T18:58:17;101226.94;;;14.00;79.57
5679;BME280;2862;52.560;13.566;2022-10-03T19:08:25;101229.88;;;13.97;80.21
5679;BME280;2862;52.560;13.566;2022-10-03T19:18:40;101227.94;;;14.09;80.48
5679;BME280;2862;52.560;13.566;2022-10-03T19:28:47;101238.66;;;13.90;81.46
5679;BME280;2862;52.560;13.566;2022-10-03T19:38:52;101225.34;;;13.98;82.69
5679;BME280;2862;52.560;13.566;2022-10-03T19:59:43;101240.19;;;13.92;86.17
5679;BME280;2862;52.560;13.566;2022-10-03T20:09:54;101232.59;;;14.07;85.39
5679;BME280;2862;52.560;13.566;2022-10-03T20:20:03;101222.84;;;14.06;85.81
5679;BME280;2862;52.560;13.566;2022-10-03T20:30:21;101224.66;;;13.96;86.97
5679;BME280;2862;52.560;13.566;2022-10-03T20:40:32;101216.56;;;13.86;88.15
5679;BME280;2862;52.560;13.566;2022-10-03T20:50:38;101219.81;;;13.90;88.47
5679;BME280;2862;52.560;13.566;2022-10-03T21:00:47;101221.41;;;14.02;87.87
5679;BME280;2862;52.560;13.566;2022-10-03T21:10:56;101232.56;;;13.97;88.36
5679;BME280;2862;52.560;13.566;2022-10-03T21:21:05;101229.75;;;13.99;88.58
5679;BME280;2862;52.560;13.566;2022-10-03T21:31:34;101232.47;;;14.08;87.86
5679;BME280;2862;52.560;13.566;2022-10-03T21:41:49;101223.97;;;14.03;87.96
5679;BME280;2862;52.560;13.566;2022-10-03T21:52:10;101224.97;;;14.12;87.39
5679;BME280;2862;52.560;13.566;2022-10-03T22:02:21;101211.25;;;14.15;87.11
5679;BME280;2862;52.560;13.566;2022-10-03T22:12:30;101214.59;;;13.98;88.11
5679;BME280;2862;52.560;13.566;2022-10-03T22:22:46;101205.00;;;13.95;88.44
5679;BME280;2862;52.560;13.566;2022-10-03T22:33:04;101204.69;;;13.98;88.90
5679;BME280;2862;52.560;13.566;2022-10-03T22:43:12;101204.03;;;14.06;88.25
5679;BME280;2862;52.560;13.566;2022-10-03T22:53:18;101195.41;;;14.12;88.13
5679;BME280;2862;52.560;13.566;2022-10-03T23:03:26;101200.34;;;14.07;88.86
5679;BME280;2862;52.560;13.566;2022-10-03T23:13:36;101196.09;;;14.14;87.42
5679;BME280;2862;52.560;13.566;2022-10-03T23:23:51;101203.03;;;14.07;88.40
5679;BME280;2862;52.560;13.566;2022-10-03T23:33:56;101207.28;;;14.00;88.58
5679;BME280;2862;52.560;13.566;2022-10-03T23:44:24;101211.25;;;14.05;88.47
5679;BME280;2862;52.560;13.566;2022-10-03T23:54:29;101218.03;;;14.09;87.95
